Time;durP1;ratioP1;P1;durP2;ratioP2;P2;SDS_P1;SDS_P2;PMS_P1;PMS_P2;Temp;Humidity;BMP_temperature;BMP_pressure;BME280_temperature;BME280_humidity;BME280_pressure;Samples;Min_cycle;Max_cycle;Signal;HPM_P1;HPM_P2
2021/01/27 06:01:21;;;;;;;39.30;15.27;;;0.50;97.30;;;;;;5681540;23;20491;-72
2021/01/27 06:03:56;;;;;;;37.77;14.50;;;0.50;97.30;;;;;;4915344;29;20427;-72
2021/01/27 06:06:23;;;;;;;46.20;16.20;;;0.50;97.30;;;;;;4915791;29;20499;-72
2021/01/27 06:08:54;;;;;;;35.97;15.27;;;0.60;97.30;;;;;;4915642;29;20424;-72
2021/01/27 06:11:20;;;;;;;36.53;14.87;;;0.60;97.30;;;;;;4906742;29;20437;-73
2021/01/27 06:13:48;;;;;;;39.43;15.77;;;0.60;97.30;;;;;;4897035;29;20424;-72
2021/01/27 06:16:23;;;;;;;38.10;16.43;;;0.60;97.30;;;;;;4900326;29;21003;-73
2021/01/27 06:18:48;;;;;;;37.63;16.13;;;0.70;97.30;;;;;;4905662;29;20424;-73
2021/01/27 06:21:52;;;;;;;37.10;14.80;;;0.70;97.30;;;;;;4905331;29;21121;-72
2021/01/27 06:24:39;;;;;;;38.03;15.77;;;0.80;97.30;;;;;;4907330;29;20184;-72
2021/01/27 06:27:13;;;;;;;36.57;15.97;;;0.80;97.30;;;;;;4899423;29;20484;-71
2021/01/27 06:29:45;;;;;;;41.30;17.27;;;0.80;97.30;;;;;;4906540;29;20426;-71
2021/01/27 06:32:22;;;;;;;36.60;14.40;;;0.90;97.30;;;;;;4905549;29;20449;-71
2021/01/27 06:35:09;;;;;;;44.90;16.10;;;0.90;97.30;;;;;;4901080;29;20506;-71
2021/01/27 06:37:44;;;;;;;32.40;14.60;;;0.90;97.30;;;;;;4923684;29;20459;-72
2021/01/27 06:40:35;;;;;;;39.20;16.17;;;0.90;97.30;;;;;;4908078;29;20433;-72
2021/01/27 06:43:17;;;;;;;35.90;16.23;;;1.00;97.30;;;;;;4909935;29;20416;-72
2021/01/27 06:46:06;;;;;;;38.70;16.47;;;1.00;97.30;;;;;;4903426;29;20433;-71
2021/01/27 06:48:48;;;;;;;32.00;15.70;;;1.00;97.30;;;;;;4905588;29;20883;-70
2021/01/27 06:51:22;;;;;;;37.80;17.40;;;1.00;97.30;;;;;;4899793;29;20445;-70
2021/01/27 06:54:07;;;;;;;40.00;17.13;;;1.00;97.30;;;;;;4899337;29;20413;-69
2021/01/27 06:56:47;;;;;;;36.87;15.50;;;1.00;97.30;;;;;;4901268;29;20843;-71
2021/01/27 06:59:56;;;;;;;32.37;15.30;;;1.00;97.30;;;;;;4900166;29;20874;-71
2021/01/27 07:03:05;;;;;;;38.80;15.77;;;1.00;97.30;;;;;;4901153;29;20463;-70
2021/01/27 07:05:59;;;;;;;33.30;16.13;;;1.10;97.30;;;;;;4882494;29;20508;-70
2021/01/27 07:08:46;;;;;;;44.77;18.40;;;1.10;97.30;;;;;;4901073;29;20420;-71
2021/01/27 07:11:23;;;;;;;32.47;15.43;;;1.10;97.30;;;;;;4901146;29;20954;-71
2021/01/27 07:14:01;;;;;;;32.03;14.43;;;1.10;97.30;;;;;;4899884;29;20520;-70
2021/01/27 07:17:05;;;;;;;34.33;14.63;;;1.10;97.30;;;;;;4901304;29;20461;-70
2021/01/27 07:19:40;;;;;;;29.77;14.60;;;1.10;97.30;;;;;;4879122;29;20436;-70
2021/01/27 07:22:15;;;;;;;38.87;16.00;;;1.10;97.30;;;;;;4899612;29;20814;-71
2021/01/27 07:24:54;;;;;;;33.67;15.57;;;1.10;97.30;;;;;;4900592;29;20417;-71
2021/01/27 07:27:22;;;;;;;31.70;14.17;;;1.10;97.30;;;;;;4900975;29;20437;-71
2021/01/27 07:29:53;;;;;;;31.20;14.40;;;1.10;97.30;;;;;;4900832;29;20907;-70
2021/01/27 07:32:42;;;;;;;41.67;17.77;;;1.10;97.30;;;;;;4900777;29;20445;-70
2021/01/27 07:35:25;;;;;;;31.47;13.87;;;1.10;97.30;;;;;;4899638;29;20460;-70
2021/01/27 07:37:58;;;;;;;41.07;15.70;;;1.10;97.30;;;;;;4899051;29;20444;-70
2021/01/27 07:40:51;;;;;;;37.57;15.27;;;1.10;97.30;;;;;;4897609;29;20779;-71
2021/01/27 07:43:21;;;;;;;39.57;17.57;;;1.10;97.30;;;;;;4930660;29;20621;-71
2021/01/27 07:45:55;;;;;;;35.10;16.60;;;1.00;97.30;;;;;;4899137;29;20468;-70
2021/01/27 07:48:20;;;;;;;31.00;15.80;;;1.00;97.30;;;;;;4900195;29;20413;-70
2021/01/27 07:51:11;;;;;;;37.10;16.07;;;1.00;97.30;;;;;;4898819;29;20993;-71
2021/01/27 07:53:39;;;;;;;32.63;14.87;;;1.10;97.30;;;;;;4900378;29;20188;-70
2021/01/27 07:56:27;;;;;;;33.03;14.83;;;1.10;97.30;;;;;;4899243;29;20816;-71
2021/01/27 07:58:53;;;;;;;31.20;14.10;;;1.20;97.30;;;;;;4900401;29;20429;-70
2021/01/27 08:01:50;;;;;;;30.47;15.20;;;1.20;97.30;;;;;;4899931;29;20527;-71
2021/01/27 08:04:40;;;;;;;37.70;15.10;;;1.30;97.30;;;;;;4899054;29;20197;-70
2021/01/27 08:07:17;;;;;;;29.27;13.00;;;1.40;97.30;;;;;;4898992;29;20465;-70
2021/01/27 08:09:43;;;;;;;27.83;14.47;;;1.60;97.30;;;;;;4900063;29;20422;-71
2021/01/27 08:12:29;;;;;;;25.10;12.93;;;1.70;97.30;;;;;;4898925;29;20437;-71
2021/01/27 08:15:06;;;;;;;27.47;13.60;;;1.80;97.30;;;;;;4898787;29;20476;-70
2021/01/27 08:17:43;;;;;;;29.07;13.80;;;1.80;97.30;;;;;;4898711;29;20417;-71
2021/01/27 08:20:17;;;;;;;32.80;14.77;;;1.80;97.30;;;;;;4898333;29;20481;-71
2021/01/27 08:23:07;;;;;;;31.43;13.73;;;1.90;97.30;;;;;;4898819;29;20435;-71
2021/01/27 08:25:51;;;;;;;28.07;13.77;;;2.10;97.30;;;;;;4899125;29;20746;-72
2021/01/27 08:28:21;;;;;;;31.67;13.40;;;2.30;97.30;;;;;;4898685;29;20424;-71
2021/01/27 08:31:25;;;;;;;26.30;12.13;;;2.40;97.30;;;;;;4899516;29;20849;-71
2021/01/27 08:33:53;;;;;;;30.63;13.50;;;2.60;97.30;;;;;;4863544;29;20426;-71
2021/01/27 08:36:31;;;;;;;23.30;10.87;;;2.60;97.30;;;;;;4879134;29;20917;-71
2021/01/27 08:38:56;;;;;;;24.17;10.53;;;2.60;97.30;;;;;;4890797;29;20513;-71
2021/01/27 08:41:45;;;;;;;27.00;11.10;;;2.60;97.30;;;;;;4898236;29;20524;-72
2021/01/27 08:44:20;;;;;;;22.00;11.20;;;2.70;97.30;;;;;;4899759;29;20182;-71
2021/01/27 08:46:52;;;;;;;19.63;10.23;;;2.70;97.30;;;;;;4898466;29;20432;-71
2021/01/27 08:49:36;;;;;;;23.30;9.83;;;2.70;97.30;;;;;;4899471;29;20465;-71
2021/01/27 08:52:21;;;;;;;20.23;9.57;;;2.60;97.30;;;;;;4899270;29;20429;-71
2021/01/27 08:54:51;;;;;;;16.53;9.07;;;2.60;97.30;;;;;;4899252;29;20911;-70
2021/01/27 08:57:33;;;;;;;18.90;9.10;;;2.60;97.30;;;;;;4899494;29;20394;-70
2021/01/27 09:00:15;;;;;;;19.17;9.90;;;2.50;97.30;;;;;;4897059;29;20448;-70
2021/01/27 09:02:54;;;;;;;17.93;10.10;;;2.50;97.30;;;;;;4898138;29;20434;-70
2021/01/27 09:05:38;;;;;;;17.77;9.10;;;2.50;97.30;;;;;;4898077;29;20432;-72
2021/01/27 09:08:10;;;;;;;17.87;9.37;;;2.50;97.30;;;;;;4897948;29;20465;-70
2021/01/27 09:10:40;;;;;;;16.33;8.93;;;2.50;97.30;;;;;;4897602;29;20870;-72
2021/01/27 09:13:30;;;;;;;18.43;9.07;;;2.50;97.30;;;;;;4897854;29;20410;-70
2021/01/27 09:16:26;;;;;;;18.33;8.40;;;2.50;97.30;;;;;;4899053;29;20561;-71
2021/01/27 09:18:57;;;;;;;15.93;8.00;;;2.50;97.30;;;;;;4897762;29;20422;-70
2021/01/27 09:21:24;;;;;;;17.10;8.40;;;2.50;97.30;;;;;;4897605;29;20434;-70
2021/01/27 09:24:01;;;;;;;15.33;7.93;;;2.50;97.30;;;;;;4898988;29;20421;-71
2021/01/27 09:26:39;;;;;;;17.53;9.03;;;2.50;97.30;;;;;;4898871;29;20492;-72
2021/01/27 09:29:13;;;;;;;15.00;7.93;;;2.50;97.30;;;;;;4897569;29;20429;-71
2021/01/27 09:31:40;;;;;;;16.80;8.90;;;2.60;97.30;;;;;;4897482;29;20469;-71
2021/01/27 09:34:29;;;;;;;17.03;8.97;;;2.60;97.30;;;;;;4898845;29;20417;-71
2021/01/27 09:37:01;;;;;;;15.73;8.10;;;2.70;97.30;;;;;;4897649;29;20468;-71
2021/01/27 09:39:33;;;;;;;17.33;8.30;;;2.70;97.30;;;;;;4897308;29;20420;-72
2021/01/27 09:42:04;;;;;;;14.37;8.37;;;2.90;97.30;;;;;;4898628;29;20809;-72
2021/01/27 09:44:37;;;;;;;21.43;8.57;;;2.90;97.30;;;;;;4897428;29;20416;-72
2021/01/27 09:47:09;;;;;;;16.50;8.47;;;2.90;97.30;;;;;;4897623;29;20987;-71
2021/01/27 09:49:39;;;;;;;12.93;8.07;;;3.00;97.30;;;;;;4897327;29;20802;-72
2021/01/27 09:52:09;;;;;;;13.97;8.00;;;3.00;97.30;;;;;;4879898;29;20525;-71
2021/01/27 09:54:37;;;;;;;17.40;8.20;;;3.00;97.30;;;;;;4879918;29;20426;-71
2021/01/27 09:57:04;;;;;;;15.57;7.90;;;3.10;97.30;;;;;;4894197;29;20426;-71
2021/01/27 09:59:31;;;;;;;13.20;8.00;;;3.10;97.30;;;;;;4878482;29;20446;-72
2021/01/27 10:01:57;;;;;;;15.40;7.30;;;3.20;97.30;;;;;;4878249;29;20473;-72
2021/01/27 10:04:36;;;;;;;10.70;6.90;;;3.20;97.30;;;;;;4879639;29;20415;-73
2021/01/27 10:07:20;;;;;;;10.13;6.47;;;3.40;97.30;;;;;;4879736;29;20186;-72
2021/01/27 10:09:51;;;;;;;15.10;7.77;;;3.40;97.30;;;;;;4879873;29;20435;-72
2021/01/27 10:12:22;;;;;;;20.87;8.30;;;3.50;97.30;;;;;;4878524;29;20510;-72
2021/01/27 10:14:49;;;;;;;11.03;7.43;;;3.50;97.30;;;;;;4879592;29;20459;-72
2021/01/27 10:17:15;;;;;;;11.13;7.07;;;3.60;97.30;;;;;;4878531;29;20494;-72
2021/01/27 10:19:50;;;;;;;15.13;8.00;;;3.70;97.30;;;;;;4879590;29;20429;-71
2021/01/27 10:22:27;;;;;;;11.77;7.30;;;3.70;97.30;;;;;;4879564;29;20430;-72
2021/01/27 10:24:55;;;;;;;11.03;6.73;;;3.70;97.30;;;;;;4878167;29;20581;-72
2021/01/27 10:27:37;;;;;;;15.63;6.37;;;3.80;97.30;;;;;;4879623;29;20426;-72
2021/01/27 10:30:22;;;;;;;9.43;5.90;;;3.80;97.30;;;;;;4893648;29;20522;-72
2021/01/27 10:32:48;;;;;;;10.03;6.37;;;3.80;96.90;;;;;;4893603;29;20427;-72
2021/01/27 10:35:23;;;;;;;11.20;6.30;;;3.70;96.90;;;;;;4878821;29;20473;-72
2021/01/27 10:38:14;;;;;;;9.83;7.07;;;3.70;96.50;;;;;;4879740;29;20264;-72
2021/01/27 10:41:00;;;;;;;11.27;6.63;;;3.80;97.10;;;;;;4876545;29;20446;-72
2021/01/27 10:43:28;;;;;;;11.07;6.80;;;3.90;96.60;;;;;;4878162;29;20426;-72
2021/01/27 10:45:53;;;;;;;12.67;6.10;;;4.00;96.10;;;;;;4878111;29;20422;-71
2021/01/27 10:48:31;;;;;;;11.30;6.13;;;3.90;95.60;;;;;;4878089;29;20426;-73
2021/01/27 10:51:05;;;;;;;11.20;6.80;;;4.00;95.60;;;;;;4877836;29;20216;-72
2021/01/27 10:53:40;;;;;;;10.80;5.60;;;4.00;95.60;;;;;;4878131;29;20461;-73
2021/01/27 10:56:06;;;;;;;9.70;5.93;;;4.30;95.80;;;;;;4878355;29;20464;-72
2021/01/27 10:58:32;;;;;;;10.40;6.10;;;4.10;94.70;;;;;;4879119;29;20467;-73
2021/01/27 11:00:57;;;;;;;10.17;6.77;;;4.10;94.80;;;;;;4878723;29;20519;-73
2021/01/27 11:03:23;;;;;;;11.63;6.70;;;4.10;95.10;;;;;;4878144;29;20317;-73
2021/01/27 11:06:00;;;;;;;9.30;6.03;;;4.10;95.80;;;;;;4878886;29;20257;-73
2021/01/27 11:08:29;;;;;;;11.53;6.60;;;4.10;95.50;;;;;;4877642;29;20508;-73
2021/01/27 11:10:59;;;;;;;11.80;6.50;;;4.00;95.40;;;;;;4880473;29;20586;-74
2021/01/27 11:13:26;;;;;;;9.90;6.03;;;3.90;95.20;;;;;;4896906;29;20445;-73
2021/01/27 11:15:52;;;;;;;13.50;6.60;;;3.80;95.80;;;;;;4897153;29;20457;-74
2021/01/27 11:18:19;;;;;;;11.23;6.80;;;3.80;96.10;;;;;;4896236;29;20931;-72
2021/01/27 11:20:46;;;;;;;9.47;6.07;;;3.80;96.40;;;;;;4897461;29;20945;-73
2021/01/27 11:23:13;;;;;;;7.53;5.53;;;3.90;95.90;;;;;;4898125;29;20468;-72
2021/01/27 11:25:38;;;;;;;10.10;6.00;;;3.80;95.30;;;;;;4899620;29;20428;-71
2021/01/27 11:28:04;;;;;;;10.13;5.97;;;3.70;95.50;;;;;;4899878;29;20433;-72
2021/01/27 11:30:30;;;;;;;15.23;6.07;;;3.70;95.80;;;;;;4900050;29;20186;-72
2021/01/27 11:32:57;;;;;;;8.13;5.73;;;3.70;95.70;;;;;;4900218;29;20436;-74
2021/01/27 11:35:24;;;;;;;6.80;5.10;;;3.60;95.60;;;;;;4899845;29;20469;-72
2021/01/27 11:37:50;;;;;;;11.40;5.70;;;3.70;95.70;;;;;;4900885;29;20492;-70
2021/01/27 11:40:22;;;;;;;9.23;5.67;;;3.60;95.20;;;;;;4900074;29;20477;-72
2021/01/27 11:42:49;;;;;;;12.43;6.17;;;3.60;95.10;;;;;;4900592;29;20426;-72
2021/01/27 11:45:16;;;;;;;9.13;5.63;;;3.70;95.20;;;;;;4899070;29;20432;-72
2021/01/27 11:47:41;;;;;;;8.90;5.93;;;3.80;95.10;;;;;;4899188;29;20505;-74
2021/01/27 11:50:08;;;;;;;10.20;6.13;;;3.80;95.00;;;;;;4900298;29;20577;-73
2021/01/27 11:52:34;;;;;;;10.53;6.40;;;3.90;95.20;;;;;;4898562;29;20676;-74
2021/01/27 11:54:59;;;;;;;7.80;5.00;;;3.90;95.20;;;;;;4912870;29;20463;-74
2021/01/27 11:57:25;;;;;;;9.00;5.23;;;3.90;94.70;;;;;;4917813;29;20416;-73
2021/01/27 11:59:51;;;;;;;9.17;5.47;;;3.90;94.50;;;;;;4917686;29;20200;-73
2021/01/27 12:02:17;;;;;;;8.70;5.33;;;3.90;94.40;;;;;;4909357;29;20465;-73
2021/01/27 12:04:43;;;;;;;9.63;5.60;;;3.80;94.40;;;;;;4898894;29;20181;-74
2021/01/27 12:07:08;;;;;;;8.90;5.17;;;3.90;94.80;;;;;;4898821;29;20213;-72
2021/01/27 12:09:35;;;;;;;9.00;5.73;;;3.90;94.40;;;;;;4898867;29;20635;-73
2021/01/27 12:12:06;;;;;;;9.00;5.63;;;4.00;94.30;;;;;;4885026;29;20578;-73
2021/01/27 12:14:32;;;;;;;8.07;5.10;;;4.30;94.20;;;;;;4891072;29;20434;-73
2021/01/27 12:16:58;;;;;;;5.90;5.10;;;4.70;94.10;;;;;;4905382;29;20474;-73
2021/01/27 12:19:24;;;;;;;11.97;5.47;;;4.90;92.50;;;;;;4917973;29;20280;-74
2021/01/27 12:21:50;;;;;;;6.30;5.20;;;5.20;92.30;;;;;;4912907;29;20469;-74
2021/01/27 12:24:18;;;;;;;7.43;4.93;;;5.10;91.10;;;;;;4899974;29;20908;-73
2021/01/27 12:26:44;;;;;;;8.80;5.40;;;5.20;91.80;;;;;;4898695;29;20512;-72
2021/01/27 12:29:09;;;;;;;6.07;4.50;;;5.40;91.40;;;;;;4899047;29;21027;-73
2021/01/27 12:31:35;;;;;;;8.03;5.17;;;5.40;90.50;;;;;;4898006;29;20453;-73
2021/01/27 12:34:01;;;;;;;9.73;5.97;;;5.40;90.30;;;;;;4910511;29;20191;-71
2021/01/27 12:36:27;;;;;;;11.07;5.20;;;5.40;90.10;;;;;;4918103;29;20232;-71
2021/01/27 12:38:53;;;;;;;9.10;4.63;;;5.50;90.20;;;;;;4911181;29;20465;-73
2021/01/27 12:41:18;;;;;;;6.27;4.70;;;5.50;89.80;;;;;;4893785;29;20527;-70
2021/01/27 12:43:44;;;;;;;7.50;4.50;;;5.60;89.80;;;;;;4914654;29;20184;-72
2021/01/27 12:46:12;;;;;;;5.23;4.40;;;5.60;89.80;;;;;;4917076;29;20255;-73
2021/01/27 12:48:39;;;;;;;8.40;4.67;;;5.80;90.10;;;;;;4916835;29;20670;-74
2021/01/27 12:51:05;;;;;;;7.00;4.90;;;5.70;89.40;;;;;;4905124;29;20503;-70
2021/01/27 12:53:30;;;;;;;7.87;5.40;;;5.80;89.00;;;;;;4898990;29;20429;-71
2021/01/27 12:55:56;;;;;;;7.63;4.80;;;5.90;89.10;;;;;;4899030;29;20520;-71
2021/01/27 12:58:22;;;;;;;7.37;5.03;;;6.00;88.50;;;;;;4903028;29;20187;-72
2021/01/27 13:00:48;;;;;;;9.03;4.43;;;6.30;89.00;;;;;;4887102;29;20274;-73
2021/01/27 13:03:14;;;;;;;7.10;4.57;;;6.40;88.20;;;;;;4897484;29;20189;-73
2021/01/27 13:05:41;;;;;;;5.53;4.23;;;6.50;88.20;;;;;;4898956;29;20517;-72
2021/01/27 13:08:07;;;;;;;8.17;4.80;;;6.80;87.80;;;;;;4897808;29;20548;-74
2021/01/27 13:10:34;;;;;;;11.30;4.87;;;6.90;87.20;;;;;;4897800;29;20417;-71
2021/01/27 13:13:00;;;;;;;7.57;4.60;;;6.80;87.00;;;;;;4897338;29;20433;-73
2021/01/27 13:15:26;;;;;;;7.40;5.30;;;6.40;87.30;;;;;;4896883;29;20476;-73
2021/01/27 13:17:53;;;;;;;9.03;4.67;;;5.90;88.10;;;;;;4897288;29;20181;-72
2021/01/27 13:20:21;;;;;;;5.00;4.10;;;5.80;89.20;;;;;;4897597;29;20418;-72
2021/01/27 13:22:47;;;;;;;7.47;4.73;;;5.70;89.80;;;;;;4897293;29;20429;-73
2021/01/27 13:25:16;;;;;;;8.70;5.20;;;5.90;89.80;;;;;;4897976;29;20970;-72
2021/01/27 13:27:43;;;;;;;8.17;5.10;;;6.20;89.20;;;;;;4897559;29;20465;-73
2021/01/27 13:30:10;;;;;;;9.53;4.83;;;6.50;88.70;;;;;;4897405;29;20855;-74
2021/01/27 13:32:36;;;;;;;8.60;4.30;;;6.80;88.00;;;;;;4897075;29;20454;-73
2021/01/27 13:35:02;;;;;;;12.40;5.60;;;7.00;87.50;;;;;;4902592;29;20603;-70
2021/01/27 13:37:27;;;;;;;9.70;4.93;;;6.90;86.70;;;;;;4916246;29;20191;-73
2021/01/27 13:39:53;;;;;;;8.50;5.50;;;6.70;86.80;;;;;;4916124;29;20535;-74
2021/01/27 13:42:19;;;;;;;7.37;5.00;;;6.80;87.20;;;;;;4912204;29;20193;-71
2021/01/27 13:44:44;;;;;;;8.33;5.13;;;6.90;87.10;;;;;;4896792;29;20185;-73
2021/01/27 13:47:10;;;;;;;6.90;4.50;;;6.90;87.10;;;;;;4898217;29;20200;-75
2021/01/27 13:49:36;;;;;;;7.73;5.27;;;6.60;87.00;;;;;;4897585;29;20184;-73
2021/01/27 13:52:02;;;;;;;7.30;4.73;;;6.20;88.20;;;;;;4882201;29;20209;-73
2021/01/27 13:54:27;;;;;;;9.63;5.00;;;6.10;89.00;;;;;;4896962;29;20181;-72
2021/01/27 13:56:53;;;;;;;11.13;5.10;;;6.30;89.00;;;;;;4894577;29;20511;-74
2021/01/27 13:59:19;;;;;;;6.00;4.37;;;6.50;88.90;;;;;;4893765;29;20206;-73
2021/01/27 14:01:46;;;;;;;7.10;4.77;;;6.80;88.10;;;;;;4893011;29;20218;-74
2021/01/27 14:04:12;;;;;;;11.33;5.10;;;6.90;88.00;;;;;;4897226;29;20562;-73
2021/01/27 14:06:38;;;;;;;8.17;5.20;;;7.40;87.90;;;;;;4893031;29;20458;-72
2021/01/27 14:09:04;;;;;;;10.07;5.57;;;7.50;86.60;;;;;;4877566;29;20419;-72
2021/01/27 14:11:29;;;;;;;8.40;5.37;;;7.60;86.40;;;;;;4880290;29;20217;-73
2021/01/27 14:13:55;;;;;;;7.97;4.87;;;7.60;86.20;;;;;;4896016;29;20228;-72
2021/01/27 14:16:21;;;;;;;7.30;4.63;;;7.00;86.40;;;;;;4898077;29;20581;-73
2021/01/27 14:18:47;;;;;;;6.33;4.63;;;6.90;87.60;;;;;;4898357;29;20181;-73
2021/01/27 14:21:13;;;;;;;8.30;5.07;;;6.30;88.00;;;;;;4896602;29;20199;-73
2021/01/27 14:23:42;;;;;;;6.80;4.87;;;6.20;89.00;;;;;;4897380;29;20413;-72
2021/01/27 14:26:08;;;;;;;15.00;5.33;;;6.20;89.30;;;;;;4897254;29;20421;-73
2021/01/27 14:28:34;;;;;;;6.83;4.63;;;6.00;89.80;;;;;;4898181;29;20420;-73
2021/01/27 14:31:00;;;;;;;7.43;4.67;;;6.00;89.50;;;;;;4896163;29;20228;-73
2021/01/27 14:33:25;;;;;;;6.53;4.23;;;6.20;89.80;;;;;;4898273;29;20181;-73
2021/01/27 14:35:52;;;;;;;6.40;4.80;;;6.40;88.80;;;;;;4908428;29;20243;-72
2021/01/27 14:38:19;;;;;;;5.93;4.00;;;6.40;88.60;;;;;;4915169;29;20177;-73
2021/01/27 14:40:47;;;;;;;8.03;5.00;;;6.40;88.80;;;;;;4917082;29;21022;-73
2021/01/27 14:43:13;;;;;;;5.63;3.87;;;6.40;88.80;;;;;;4906186;29;20417;-72
2021/01/27 14:45:39;;;;;;;8.07;4.90;;;6.10;88.90;;;;;;4896151;29;20935;-72
2021/01/27 14:48:07;;;;;;;5.17;4.00;;;5.70;89.90;;;;;;4898214;29;20504;-72
2021/01/27 14:50:33;;;;;;;8.37;5.07;;;5.60;90.50;;;;;;4896655;29;20684;-72
2021/01/27 14:52:59;;;;;;;6.40;4.90;;;5.30;91.00;;;;;;4895633;29;20528;-72
2021/01/27 14:55:25;;;;;;;8.50;5.37;;;5.00;91.80;;;;;;4895537;29;20209;-73
2021/01/27 14:57:51;;;;;;;8.40;4.73;;;4.70;92.90;;;;;;4898852;29;20417;-72
2021/01/27 15:00:18;;;;;;;6.87;4.80;;;4.40;93.90;;;;;;4898218;29;20432;-72
2021/01/27 15:02:44;;;;;;;8.07;5.07;;;4.20;94.60;;;;;;4898957;29;20433;-72
2021/01/27 15:05:10;;;;;;;7.77;5.40;;;4.00;95.10;;;;;;4900260;29;20476;-72
2021/01/27 15:07:36;;;;;;;11.80;5.80;;;3.80;95.80;;;;;;4901204;29;20181;-72
2021/01/27 15:10:08;;;;;;;13.00;5.27;;;3.70;96.30;;;;;;4899570;29;20773;-72
2021/01/27 15:12:33;;;;;;;7.20;4.80;;;3.60;96.70;;;;;;4900323;29;20441;-71
2021/01/27 15:14:59;;;;;;;8.20;5.23;;;3.60;97.20;;;;;;4901154;29;20995;-71
2021/01/27 15:17:28;;;;;;;10.17;5.00;;;3.50;97.30;;;;;;4901168;29;20165;-71
2021/01/27 15:19:55;;;;;;;10.77;4.70;;;3.50;97.30;;;;;;4899738;29;20237;-72
2021/01/27 15:22:21;;;;;;;8.93;4.80;;;3.40;97.30;;;;;;4899573;29;20445;-72
2021/01/27 15:24:46;;;;;;;7.37;4.90;;;3.40;97.30;;;;;;4899561;29;20980;-72
2021/01/27 15:27:12;;;;;;;8.03;4.53;;;3.30;97.30;;;;;;4899773;29;20177;-71
2021/01/27 15:29:38;;;;;;;6.63;4.00;;;3.30;97.30;;;;;;4902847;29;20185;-71
2021/01/27 15:32:04;;;;;;;8.30;4.67;;;3.30;97.30;;;;;;4899209;29;20201;-71
2021/01/27 15:34:31;;;;;;;9.73;5.30;;;3.20;97.30;;;;;;4887873;29;20257;-71
2021/01/27 15:36:56;;;;;;;6.77;4.00;;;3.20;97.30;;;;;;4914756;29;20513;-71
2021/01/27 15:39:23;;;;;;;8.00;4.37;;;3.20;97.30;;;;;;4900847;29;20406;-71
2021/01/27 15:41:49;;;;;;;7.07;4.60;;;3.10;97.30;;;;;;4902251;29;20193;-72
2021/01/27 15:44:16;;;;;;;6.80;4.37;;;3.10;97.30;;;;;;4907837;29;20422;-71
2021/01/27 15:46:45;;;;;;;7.47;5.03;;;3.10;97.30;;;;;;4899284;29;20432;-72
2021/01/27 15:49:12;;;;;;;9.57;5.23;;;3.10;97.30;;;;;;4900394;29;20481;-72
2021/01/27 15:51:40;;;;;;;6.00;4.50;;;3.10;97.30;;;;;;4900311;29;20943;-72
2021/01/27 15:54:05;;;;;;;9.60;5.30;;;3.10;97.30;;;;;;4898864;29;20469;-72
2021/01/27 15:56:31;;;;;;;6.17;4.40;;;3.00;97.30;;;;;;4900325;29;20449;-72
2021/01/27 15:58:57;;;;;;;11.50;5.80;;;3.00;97.30;;;;;;4899056;29;20648;-71
2021/01/27 16:01:23;;;;;;;7.40;4.40;;;3.00;97.30;;;;;;4884346;29;20216;-72
2021/01/27 16:03:49;;;;;;;5.80;4.00;;;3.00;97.30;;;;;;4899743;29;20417;-72
2021/01/27 16:06:15;;;;;;;10.53;4.50;;;3.00;97.30;;;;;;4898981;29;20221;-71
2021/01/27 16:08:40;;;;;;;6.97;4.60;;;2.90;97.30;;;;;;4900942;29;20188;-72
2021/01/27 16:11:06;;;;;;;7.37;4.17;;;2.90;97.30;;;;;;4896294;29;20976;-71
2021/01/27 16:13:32;;;;;;;6.97;4.80;;;2.90;97.30;;;;;;4898570;29;20315;-71
2021/01/27 16:15:58;;;;;;;7.43;4.43;;;2.90;97.30;;;;;;4898623;29;20200;-71
2021/01/27 16:18:24;;;;;;;7.13;4.63;;;2.90;97.30;;;;;;4898876;29;20936;-71
2021/01/27 16:20:50;;;;;;;7.97;4.70;;;2.90;97.30;;;;;;4899539;29;20193;-71
2021/01/27 16:23:16;;;;;;;6.07;3.87;;;2.90;97.30;;;;;;4900326;29;20178;-71
2021/01/27 16:25:42;;;;;;;7.37;4.57;;;2.90;97.30;;;;;;4898715;29;20425;-71
2021/01/27 16:28:08;;;;;;;5.43;4.07;;;2.90;97.30;;;;;;4897282;29;20702;-71
2021/01/27 16:30:35;;;;;;;7.47;4.53;;;2.90;97.30;;;;;;4897820;29;20422;-71
2021/01/27 16:33:02;;;;;;;10.43;4.67;;;2.90;97.30;;;;;;4897835;29;20500;-71
2021/01/27 16:35:33;;;;;;;8.30;4.77;;;2.90;97.30;;;;;;4899536;29;20500;-71
2021/01/27 16:38:00;;;;;;;10.10;4.53;;;2.90;97.30;;;;;;4898479;29;20418;-72
2021/01/27 16:40:26;;;;;;;7.67;4.70;;;2.90;97.30;;;;;;4898178;29;20421;-72
2021/01/27 16:42:55;;;;;;;10.90;3.60;;;2.90;97.30;;;;;;4911937;29;20417;-71
2021/01/27 16:45:23;;;;;;;6.60;3.83;;;2.90;97.30;;;;;;4899384;29;20938;-70
2021/01/27 16:47:49;;;;;;;5.90;3.93;;;2.80;97.30;;;;;;4898596;29;20500;-71
2021/01/27 16:50:16;;;;;;;6.90;4.20;;;2.80;97.30;;;;;;4899067;29;20433;-71
2021/01/27 16:52:42;;;;;;;5.20;4.13;;;2.80;97.30;;;;;;4899197;29;20422;-71
2021/01/27 16:55:09;;;;;;;6.33;4.03;;;2.80;97.30;;;;;;4899613;29;20420;-70
2021/01/27 16:57:35;;;;;;;5.23;4.20;;;2.80;97.30;;;;;;4898152;29;20425;-71
2021/01/27 17:00:05;;;;;;;5.73;4.00;;;2.80;97.30;;;;;;4897963;29;20437;-71
2021/01/27 17:02:30;;;;;;;6.53;3.87;;;2.70;97.30;;;;;;4899734;29;20814;-71
2021/01/27 17:04:56;;;;;;;7.00;4.57;;;2.70;97.30;;;;;;4899552;29;20409;-72
2021/01/27 17:07:22;;;;;;;6.60;4.00;;;2.70;97.30;;;;;;4897737;29;20731;-72
2021/01/27 17:09:51;;;;;;;16.77;5.47;;;2.70;97.30;;;;;;4897458;29;20185;-72
2021/01/27 17:12:17;;;;;;;6.37;4.10;;;2.60;97.30;;;;;;4898909;29;20433;-72
2021/01/27 17:14:43;;;;;;;7.27;4.30;;;2.60;97.30;;;;;;4897515;29;20508;-72
2021/01/27 17:17:09;;;;;;;5.90;4.13;;;2.60;97.30;;;;;;4913490;29;20233;-73
2021/01/27 17:19:35;;;;;;;6.50;4.07;;;2.60;97.30;;;;;;4913194;29;20842;-72
2021/01/27 17:22:00;;;;;;;8.00;3.83;;;2.70;97.30;;;;;;4913266;29;20288;-72
2021/01/27 17:24:26;;;;;;;5.37;3.83;;;2.60;97.30;;;;;;4899196;29;20500;-72
2021/01/27 17:26:52;;;;;;;5.90;4.10;;;2.60;97.30;;;;;;4897856;29;20617;-72
2021/01/27 17:29:18;;;;;;;8.20;4.03;;;2.60;97.30;;;;;;4899228;29;20681;-72
2021/01/27 17:31:44;;;;;;;7.57;4.47;;;2.60;97.30;;;;;;4897510;29;20197;-72
2021/01/27 17:34:11;;;;;;;10.00;3.90;;;2.60;97.30;;;;;;4897313;29;20271;-72
2021/01/27 17:36:36;;;;;;;8.67;4.43;;;2.60;97.30;;;;;;4898760;29;20551;-72
2021/01/27 17:39:05;;;;;;;8.00;4.20;;;2.60;97.30;;;;;;4897486;29;20889;-72
2021/01/27 17:41:31;;;;;;;4.70;3.77;;;2.50;97.30;;;;;;4896994;29;20228;-73
2021/01/27 17:43:56;;;;;;;6.03;4.50;;;2.50;97.30;;;;;;4897416;29;20457;-72
2021/01/27 17:46:22;;;;;;;6.40;4.30;;;2.50;97.30;;;;;;4897510;29;20475;-72
2021/01/27 17:48:49;;;;;;;8.10;5.00;;;2.50;97.30;;;;;;4897361;29;20567;-72
2021/01/27 17:51:15;;;;;;;6.17;3.83;;;2.50;97.30;;;;;;4899316;29;20508;-73
2021/01/27 17:53:41;;;;;;;7.60;4.93;;;2.50;97.30;;;;;;4897857;29;20528;-72
2021/01/27 17:56:08;;;;;;;6.60;4.60;;;2.50;97.30;;;;;;4898683;29;20671;-72
2021/01/27 17:58:35;;;;;;;7.83;5.00;;;2.50;97.30;;;;;;4898298;29;20229;-72
2021/01/27 18:01:02;;;;;;;7.83;5.03;;;2.50;97.30;;;;;;4896837;29;20829;-72
2021/01/27 18:03:28;;;;;;;7.87;4.47;;;2.50;97.30;;;;;;4897520;29;20425;-71
2021/01/27 18:05:54;;;;;;;8.40;5.10;;;2.50;97.30;;;;;;4898598;29;20500;-72
2021/01/27 18:08:20;;;;;;;8.40;5.00;;;2.50;97.30;;;;;;4897151;29;20192;-73
2021/01/27 18:10:47;;;;;;;8.10;4.87;;;2.50;97.30;;;;;;4896412;29;20213;-72
2021/01/27 18:13:14;;;;;;;7.90;5.40;;;2.50;97.30;;;;;;4897279;29;20432;-72
2021/01/27 18:15:41;;;;;;;11.03;5.23;;;2.50;97.30;;;;;;4897147;29;20464;-72
2021/01/27 18:18:08;;;;;;;8.70;4.80;;;2.40;97.30;;;;;;4898204;29;20437;-72
2021/01/27 18:20:36;;;;;;;10.90;4.90;;;2.40;97.30;;;;;;4896727;29;20461;-72
2021/01/27 18:23:03;;;;;;;9.30;5.03;;;2.40;97.30;;;;;;4897771;29;20413;-72
2021/01/27 18:25:34;;;;;;;9.80;5.43;;;2.40;97.30;;;;;;4898010;29;20431;-72
2021/01/27 18:28:00;;;;;;;8.40;5.50;;;2.40;97.30;;;;;;4896790;29;20771;-72
2021/01/27 18:30:28;;;;;;;5.43;4.30;;;2.40;97.30;;;;;;4896511;29;20564;-73
2021/01/27 18:32:55;;;;;;;12.27;5.97;;;2.40;97.30;;;;;;4899104;29;20408;-73
2021/01/27 18:35:26;;;;;;;12.40;5.73;;;2.40;97.30;;;;;;4901756;29;20465;-72
2021/01/27 18:37:52;;;;;;;7.60;4.60;;;2.40;97.30;;;;;;4900426;29;20442;-72
2021/01/27 18:40:19;;;;;;;7.97;5.10;;;2.30;97.30;;;;;;4901397;29;20514;-72
2021/01/27 18:42:45;;;;;;;7.70;4.93;;;2.30;97.30;;;;;;4899464;29;20428;-72
2021/01/27 18:45:12;;;;;;;6.23;4.80;;;2.30;97.30;;;;;;4901036;29;20531;-71
2021/01/27 18:47:38;;;;;;;7.13;4.83;;;2.30;97.30;;;;;;4901341;29;20177;-72
2021/01/27 18:50:09;;;;;;;6.70;4.40;;;2.30;97.30;;;;;;4899523;29;20444;-72
2021/01/27 18:52:36;;;;;;;11.20;6.20;;;2.20;97.30;;;;;;4899881;29;20233;-73
2021/01/27 18:55:04;;;;;;;6.00;4.50;;;2.20;97.30;;;;;;4901457;29;20425;-72
2021/01/27 18:57:30;;;;;;;8.43;4.70;;;2.20;97.30;;;;;;4899543;29;20462;-72
2021/01/27 18:59:56;;;;;;;7.67;4.80;;;2.20;97.30;;;;;;4899442;29;20437;-72
2021/01/27 19:02:22;;;;;;;9.20;5.33;;;2.20;97.30;;;;;;4899282;29;20296;-72
2021/01/27 19:04:48;;;;;;;8.00;4.90;;;2.20;97.30;;;;;;4898822;29;20957;-72
2021/01/27 19:07:14;;;;;;;7.67;4.80;;;2.20;97.30;;;;;;4901197;29;20493;-72